createdAt,value
2023-01-23T00:01:07.788Z,3.70
2023-01-23T00:03:34.478Z,3.70
2023-01-23T00:06:07.096Z,3.70
2023-01-23T00:08:35.296Z,3.80
2023-01-23T00:11:06.268Z,3.80
2023-01-23T00:13:33.941Z,3.70
2023-01-23T00:16:04.692Z,3.70
2023-01-23T00:18:31.460Z,3.70
2023-01-23T00:20:58.712Z,3.70
2023-01-23T00:23:25.354Z,3.70
2023-01-23T00:25:51.991Z,3.70
2023-01-23T00:28:19.773Z,3.70
2023-01-23T00:30:46.558Z,3.70
2023-01-23T00:33:13.368Z,3.70
2023-01-23T00:35:40.004Z,3.70
2023-01-23T00:38:06.680Z,3.70
2023-01-23T00:40:33.977Z,3.70
2023-01-23T00:43:00.607Z,3.70
2023-01-23T00:45:27.368Z,3.70
2023-01-23T00:47:53.970Z,3.70
2023-01-23T00:50:20.870Z,3.60
2023-01-23T00:52:47.562Z,3.60
2023-01-23T00:55:14.232Z,3.60
2023-01-23T00:57:40.801Z,3.70
2023-01-23T01:00:08.153Z,3.70
2023-01-23T01:02:34.776Z,3.70
2023-01-23T01:05:01.488Z,3.70
2023-01-23T01:07:28.088Z,3.60
2023-01-23T01:09:54.744Z,3.60
2023-01-23T01:12:21.448Z,3.70
2023-01-23T01:14:48.134Z,3.70
2023-01-23T01:17:14.813Z,3.60
2023-01-23T01:19:41.448Z,3.60
2023-01-23T01:22:08.047Z,3.60
2023-01-23T01:24:34.684Z,3.60
2023-01-23T01:27:01.298Z,3.60
2023-01-23T01:29:27.908Z,3.60
2023-01-23T01:31:54.571Z,3.60
2023-01-23T01:34:23.579Z,3.60
2023-01-23T01:36:51.636Z,3.60
2023-01-23T01:39:18.271Z,3.50
2023-01-23T01:41:45.408Z,3.50
2023-01-23T01:44:22.377Z,3.50
2023-01-23T01:46:49.842Z,3.40
2023-01-23T01:49:31.656Z,3.40
2023-01-23T01:52:03.231Z,3.30
2023-01-23T01:54:39.480Z,3.30
2023-01-23T01:57:40.727Z,3.20
2023-01-23T02:00:15.597Z,3.20
2023-01-23T02:02:53.360Z,3.20
2023-01-23T02:05:27.510Z,3.10
2023-01-23T02:08:06.348Z,3.10
2023-01-23T02:10:34.857Z,3.10
2023-01-23T02:13:24.686Z,3.10
2023-01-23T02:15:52.652Z,3.10
2023-01-23T02:18:20.652Z,3.10
2023-01-23T02:20:48.312Z,3.00
2023-01-23T02:23:23.691Z,3.00
2023-01-23T02:26:03.390Z,3.00
2023-01-23T02:28:38.879Z,2.90
2023-01-23T02:31:05.790Z,2.80
2023-01-23T02:33:32.556Z,2.70
2023-01-23T02:36:05.349Z,2.70
2023-01-23T02:38:50.937Z,2.60
2023-01-23T02:41:20.584Z,2.50
2023-01-23T02:43:48.956Z,2.50
2023-01-23T02:46:15.749Z,2.40
2023-01-23T02:48:43.872Z,2.40
2023-01-23T02:51:10.599Z,2.40
2023-01-23T02:53:37.973Z,2.30
2023-01-23T02:56:04.989Z,2.30
2023-01-23T02:58:50.331Z,2.30
2023-01-23T03:01:17.076Z,2.30
2023-01-23T03:03:43.788Z,2.20
2023-01-23T03:06:11.571Z,2.10
2023-01-23T03:08:47.558Z,2.10
2023-01-23T03:11:16.083Z,2.10
2023-01-23T03:13:43.251Z,2.10
2023-01-23T03:16:10.044Z,2.10
2023-01-23T03:18:52.897Z,2.10
2023-01-23T03:21:20.772Z,2.20
2023-01-23T03:23:48.281Z,2.20
2023-01-23T03:26:15.282Z,2.30
2023-01-23T03:29:00.469Z,2.40
2023-01-23T03:31:27.199Z,2.40
2023-01-23T03:33:54.021Z,2.50
2023-01-23T03:36:21.420Z,2.50
2023-01-23T03:39:06.654Z,2.60
2023-01-23T03:41:33.301Z,2.60
2023-01-23T03:43:59.892Z,2.70
2023-01-23T03:46:26.506Z,2.60
2023-01-23T03:48:53.253Z,2.60
2023-01-23T03:51:19.927Z,2.70
2023-01-23T03:53:46.545Z,2.70
2023-01-23T03:56:13.256Z,2.70
2023-01-23T03:58:39.958Z,2.80
2023-01-23T04:01:07.859Z,2.80
2023-01-23T04:03:34.550Z,2.90
2023-01-23T04:06:01.238Z,2.90
2023-01-23T04:08:29.366Z,2.90
2023-01-23T04:11:10.167Z,2.90
2023-01-23T04:13:37.466Z,2.90
2023-01-23T04:16:05.706Z,2.90
2023-01-23T04:18:33.093Z,3.00
2023-01-23T04:21:00.145Z,3.00
2023-01-23T04:23:26.931Z,3.00
2023-01-23T04:25:53.674Z,3.10
2023-01-23T04:28:20.585Z,3.00
2023-01-23T04:30:47.322Z,3.10
2023-01-23T04:33:14.010Z,3.10
2023-01-23T04:35:40.629Z,3.20
2023-01-23T04:38:07.268Z,3.10
2023-01-23T04:40:33.877Z,3.20
2023-01-23T04:43:00.579Z,3.10
2023-01-23T04:45:27.222Z,3.20
2023-01-23T04:47:54.006Z,3.20
2023-01-23T04:50:20.872Z,3.20
2023-01-23T04:52:47.625Z,3.20
2023-01-23T04:55:14.633Z,3.30
2023-01-23T04:57:41.288Z,3.30
2023-01-23T05:00:09.331Z,3.30
2023-01-23T05:02:36.155Z,3.30
2023-01-23T05:05:03.071Z,3.30
2023-01-23T05:07:29.768Z,3.40
2023-01-23T05:09:56.396Z,3.30
2023-01-23T05:12:23.066Z,3.30
2023-01-23T05:14:49.665Z,3.40
2023-01-23T05:17:16.298Z,3.40
2023-01-23T05:19:43.024Z,3.40
2023-01-23T05:22:09.784Z,3.40
2023-01-23T05:24:36.507Z,3.40
2023-01-23T05:27:03.332Z,3.40
2023-01-23T05:29:30.034Z,3.30
2023-01-23T05:31:56.833Z,3.30
2023-01-23T05:34:23.499Z,3.30
2023-01-23T05:36:50.101Z,3.30
2023-01-23T05:39:16.744Z,3.40
2023-01-23T05:41:43.359Z,3.40
2023-01-23T05:44:09.962Z,3.40
2023-01-23T05:46:36.565Z,3.40
2023-01-23T05:49:03.291Z,3.40
2023-01-23T05:51:33.866Z,3.50
2023-01-23T05:54:01.698Z,3.50
2023-01-23T05:56:28.321Z,3.40
2023-01-23T05:58:55.134Z,3.50
2023-01-23T06:01:22.101Z,3.50
2023-01-23T06:03:48.871Z,3.50
2023-01-23T06:06:15.580Z,3.50
2023-01-23T06:08:42.283Z,3.50
2023-01-23T06:11:08.943Z,3.50
2023-01-23T06:13:36.516Z,3.50
2023-01-23T06:16:03.463Z,3.50
2023-01-23T06:18:30.232Z,3.50
2023-01-23T06:21:01.149Z,3.50
2023-01-23T06:23:28.175Z,3.50
2023-01-23T06:25:58.440Z,3.50
2023-01-23T06:28:25.095Z,3.50
2023-01-23T06:30:51.848Z,3.50
2023-01-23T06:33:18.589Z,3.60
2023-01-23T06:35:45.239Z,3.50
2023-01-23T06:38:11.874Z,3.50
2023-01-23T06:40:38.496Z,3.60
2023-01-23T06:43:05.155Z,3.60
2023-01-23T06:45:31.826Z,3.50
2023-01-23T06:47:58.422Z,3.60
2023-01-23T06:50:25.018Z,3.60
2023-01-23T06:52:51.654Z,3.50
2023-01-23T06:55:18.305Z,3.50
2023-01-23T06:57:44.936Z,3.60
2023-01-23T07:00:12.231Z,3.60
2023-01-23T07:02:39.854Z,3.60
2023-01-23T07:05:06.917Z,3.60
2023-01-23T07:07:33.683Z,3.60
2023-01-23T07:10:00.345Z,3.60
2023-01-23T07:12:26.984Z,3.60
2023-01-23T07:14:53.646Z,3.60
2023-01-23T07:17:20.281Z,3.60
2023-01-23T07:19:46.929Z,3.60
2023-01-23T07:22:17.664Z,3.50
2023-01-23T07:24:44.346Z,3.50
2023-01-23T07:27:11.253Z,3.40
2023-01-23T07:29:37.903Z,3.40
2023-01-23T07:32:04.841Z,3.40
2023-01-23T07:34:31.534Z,3.50
2023-01-23T07:36:58.215Z,3.50
2023-01-23T07:39:25.203Z,3.50
2023-01-23T07:41:51.887Z,3.50
2023-01-23T07:44:20.437Z,3.50
2023-01-23T07:46:48.437Z,3.50
2023-01-23T07:49:15.542Z,3.60
2023-01-23T07:51:42.220Z,3.60
2023-01-23T07:54:09.111Z,3.60
2023-01-23T07:56:35.742Z,3.60
2023-01-23T07:59:02.383Z,3.60
2023-01-23T08:01:29.035Z,3.60
2023-01-23T08:03:55.752Z,3.70
2023-01-23T08:06:22.696Z,3.80
2023-01-23T08:08:49.575Z,3.80
2023-01-23T08:11:16.887Z,3.90
2023-01-23T08:13:43.554Z,4.00
2023-01-23T08:16:13.339Z,4.00
2023-01-23T08:18:40.250Z,4.10
2023-01-23T08:21:06.916Z,4.10
2023-01-23T08:23:34.641Z,4.10
2023-01-23T08:26:03.638Z,4.10
2023-01-23T08:28:30.841Z,4.10
2023-01-23T08:31:06.672Z,4.00
2023-01-23T08:33:34.886Z,4.10
2023-01-23T08:36:02.163Z,4.10
2023-01-23T08:38:28.790Z,4.00
2023-01-23T08:40:59.521Z,4.00
2023-01-23T08:43:26.326Z,4.00
2023-01-23T08:45:55.027Z,4.10
2023-01-23T08:48:23.768Z,4.10
2023-01-23T08:50:51.575Z,4.20
2023-01-23T08:53:18.495Z,4.30
2023-01-23T08:55:45.108Z,4.50
2023-01-23T08:58:13.120Z,4.60
2023-01-23T09:00:40.564Z,4.70
2023-01-23T09:03:08.888Z,4.70
2023-01-23T09:05:36.616Z,4.80
2023-01-23T09:08:03.381Z,4.80
2023-01-23T09:10:30.024Z,4.80
2023-01-23T09:12:57.757Z,4.80
2023-01-23T09:15:24.412Z,4.80
2023-01-23T09:17:51.047Z,4.80
2023-01-23T09:20:18.241Z,4.90
2023-01-23T09:22:45.103Z,4.90
2023-01-23T09:25:12.222Z,4.70
2023-01-23T09:27:38.841Z,4.70
2023-01-23T09:30:06.057Z,4.70
2023-01-23T09:32:32.909Z,4.70
2023-01-23T09:34:59.538Z,4.70
2023-01-23T09:37:29.011Z,4.70
2023-01-23T09:39:55.994Z,4.70
2023-01-23T09:42:32.018Z,4.70
2023-01-23T09:45:04.037Z,4.80
2023-01-23T09:47:43.220Z,4.90
2023-01-23T09:50:21.489Z,5.00
2023-01-23T09:52:55.339Z,5.10
2023-01-23T09:55:40.357Z,5.20
2023-01-23T09:58:18.421Z,5.20
2023-01-23T10:00:46.276Z,5.30
2023-01-23T10:03:15.813Z,5.40
2023-01-23T10:06:06.726Z,5.40
2023-01-23T10:09:04.887Z,5.30
2023-01-23T10:11:49.144Z,5.10
2023-01-23T10:15:01.452Z,5.20
2023-01-23T10:17:46.925Z,5.10
2023-01-23T10:20:22.389Z,5.10
2023-01-23T10:23:08.429Z,5.10
2023-01-23T10:25:38.300Z,4.90
2023-01-23T10:28:39.189Z,4.90
2023-01-23T10:31:12.361Z,4.90
2023-01-23T10:33:45.033Z,4.90
2023-01-23T10:36:24.136Z,4.90
2023-01-23T10:39:14.139Z,5.00
2023-01-23T10:41:41.984Z,5.00
2023-01-23T10:44:16.533Z,5.00
2023-01-23T10:46:56.149Z,5.00
2023-01-23T10:49:37.719Z,5.10
2023-01-23T10:52:22.310Z,5.20
2023-01-23T10:54:48.913Z,5.20
2023-01-23T10:57:15.453Z,5.20
2023-01-23T11:00:01.391Z,5.20
2023-01-23T11:02:33.267Z,5.20
2023-01-23T11:05:00.696Z,5.20
2023-01-23T11:07:32.397Z,5.30
2023-01-23T11:10:09.489Z,5.40
2023-01-23T11:12:48.559Z,5.40
2023-01-23T11:15:32.186Z,5.30
2023-01-23T11:18:00.787Z,5.30
2023-01-23T11:20:40.849Z,5.40
2023-01-23T11:23:13.209Z,5.50
2023-01-23T11:25:42.513Z,5.60
2023-01-23T11:28:36.274Z,5.60
2023-01-23T11:31:15.942Z,5.70
2023-01-23T11:33:54.539Z,5.80
2023-01-23T11:36:30.701Z,5.70
2023-01-23T11:39:02.877Z,5.70
2023-01-23T11:41:32.594Z,5.70
2023-01-23T11:44:00.901Z,5.60
2023-01-23T11:47:00.827Z,5.70
2023-01-23T11:50:10.760Z,5.80
2023-01-23T11:53:42.379Z,5.90
2023-01-23T11:56:36.749Z,6.00
2023-01-23T11:59:14.734Z,5.70
2023-01-23T12:02:03.711Z,5.70
2023-01-23T12:04:59.909Z,5.70
2023-01-23T12:07:27.493Z,5.60
2023-01-23T12:10:31.748Z,5.60
2023-01-23T12:13:27.740Z,5.60
2023-01-23T12:16:03.849Z,5.60
2023-01-23T12:19:17.987Z,5.60
2023-01-23T12:21:52.766Z,5.70
2023-01-23T12:24:57.783Z,5.70
2023-01-23T12:27:27.239Z,5.80
2023-01-23T12:30:28.996Z,5.80
2023-01-23T12:33:21.013Z,5.80
2023-01-23T12:36:18.521Z,5.90
2023-01-23T12:39:01.439Z,5.80
2023-01-23T12:41:39.224Z,5.80
2023-01-23T12:44:11.641Z,5.80
2023-01-23T12:47:04.135Z,5.80
2023-01-23T12:50:09.086Z,6.00
2023-01-23T12:52:43.328Z,6.20
2023-01-23T12:55:28.731Z,6.40
2023-01-23T12:57:59.841Z,6.60
2023-01-23T13:01:03.765Z,7.30
2023-01-23T13:03:58.198Z,9.30
2023-01-23T13:06:45.978Z,11.90
2023-01-23T13:09:49.388Z,14.50
2023-01-23T13:12:26.536Z,16.80
2023-01-23T13:15:14.912Z,18.30
2023-01-23T13:17:49.644Z,19.70
2023-01-23T13:20:43.190Z,20.90
2023-01-23T13:23:28.423Z,21.20
2023-01-23T13:26:16.210Z,19.90
2023-01-23T13:28:55.605Z,17.90
2023-01-23T13:31:41.922Z,16.40
2023-01-23T13:34:17.578Z,14.90
2023-01-23T13:36:46.162Z,13.80
2023-01-23T13:39:22.973Z,12.90
2023-01-23T13:41:51.048Z,12.10
2023-01-23T13:44:41.546Z,11.70
2023-01-23T14:22:47.142Z,9.10
2023-01-23T14:25:18.277Z,9.20
2023-01-23T14:27:53.308Z,9.00
2023-01-23T14:30:30.240Z,8.90
2023-01-23T14:32:58.791Z,8.90
2023-01-23T14:35:32.785Z,8.70
2023-01-23T14:38:02.163Z,8.60
2023-01-23T14:40:37.269Z,8.50
2023-01-23T14:43:08.459Z,8.30
2023-01-23T14:45:37.079Z,8.20
2023-01-23T14:48:07.431Z,8.20
2023-01-23T14:50:34.936Z,8.10
2023-01-23T14:53:07.458Z,8.00
2023-01-23T14:55:40.666Z,7.90
2023-01-23T14:58:13.606Z,7.80
2023-01-23T15:00:41.843Z,7.70
2023-01-23T15:03:12.605Z,7.70
2023-01-23T15:05:41.013Z,7.50
2023-01-23T15:08:21.087Z,7.50
2023-01-23T15:10:50.455Z,7.20
2023-01-23T15:13:50.217Z,7.00
2023-01-23T15:16:23.570Z,6.80
2023-01-23T15:18:52.908Z,6.80
2023-01-23T15:21:30.443Z,6.60
2023-01-23T15:24:13.841Z,6.40
2023-01-23T15:26:42.959Z,6.30
2023-01-23T15:29:09.526Z,6.10
2023-01-23T15:31:44.835Z,6.00
2023-01-23T15:34:14.576Z,5.90
2023-01-23T15:37:06.316Z,5.70
2023-01-23T15:39:52.122Z,5.70
2023-01-23T15:42:18.711Z,5.60
2023-01-23T15:44:45.513Z,5.50
2023-01-23T15:47:12.140Z,5.40
2023-01-23T15:49:39.925Z,5.30
2023-01-23T15:52:20.535Z,5.20
2023-01-23T15:54:47.908Z,5.10
2023-01-23T15:57:15.188Z,5.00
2023-01-23T15:59:42.089Z,4.90
2023-01-23T16:02:30.549Z,4.90
2023-01-23T16:04:58.642Z,4.80
2023-01-23T16:07:35.144Z,4.80
2023-01-23T16:10:26.146Z,4.70
2023-01-23T16:12:55.123Z,4.50
2023-01-23T16:15:27.297Z,4.50
2023-01-23T16:17:54.433Z,4.40
2023-01-23T16:20:34.446Z,4.30
2023-01-23T16:23:14.243Z,4.30
2023-01-23T16:25:46.191Z,4.20
2023-01-23T16:28:19.122Z,4.10
2023-01-23T16:30:47.238Z,4.00
2023-01-23T16:33:14.334Z,3.90
2023-01-23T16:35:42.011Z,3.90
2023-01-23T16:38:18.011Z,3.90
2023-01-23T16:40:44.660Z,3.80
2023-01-23T16:43:11.279Z,3.70
2023-01-23T16:45:37.868Z,3.70
2023-01-23T16:48:05.529Z,3.70
2023-01-23T16:50:36.601Z,3.60
2023-01-23T16:53:08.091Z,3.50
2023-01-23T16:55:41.915Z,3.60
2023-01-23T16:58:16.084Z,3.60
2023-01-23T17:00:43.709Z,3.50
2023-01-23T17:03:10.948Z,3.50
2023-01-23T17:05:37.621Z,3.40
2023-01-23T17:08:21.219Z,3.30
2023-01-23T17:10:58.334Z,3.30
2023-01-23T17:13:25.462Z,3.40
2023-01-23T17:15:54.802Z,3.30
2023-01-23T17:18:27.996Z,3.30
2023-01-23T17:20:55.306Z,3.30
2023-01-23T17:23:23.146Z,3.30
2023-01-23T17:26:00.406Z,3.20
2023-01-23T17:28:28.383Z,3.20
2023-01-23T17:30:57.855Z,3.20
2023-01-23T17:33:27.794Z,3.10
2023-01-23T17:35:54.560Z,3.00
2023-01-23T17:38:24.786Z,3.00
2023-01-23T17:40:53.885Z,3.00
2023-01-23T17:43:21.148Z,3.00
2023-01-23T17:45:50.142Z,3.00
2023-01-23T17:48:21.848Z,3.00
2023-01-23T17:50:48.565Z,3.00
2023-01-23T17:53:16.664Z,3.00
2023-01-23T17:55:46.924Z,3.00
2023-01-23T17:58:14.719Z,2.90
2023-01-23T18:00:43.662Z,2.90
2023-01-23T18:03:15.161Z,2.90
2023-01-23T18:05:41.840Z,2.90
2023-01-23T18:08:13.831Z,2.90
2023-01-23T18:10:41.691Z,2.90
2023-01-23T18:13:38.203Z,2.90
2023-01-23T18:16:07.723Z,2.80
2023-01-23T18:18:37.044Z,2.80
2023-01-23T18:21:06.058Z,2.80
2023-01-23T18:23:37.038Z,2.80
2023-01-23T18:26:38.752Z,2.80
2023-01-23T18:29:30.914Z,2.80
2023-01-23T18:32:14.961Z,2.90
2023-01-23T18:34:47.911Z,2.80
2023-01-23T18:37:25.325Z,2.80
2023-01-23T18:40:04.858Z,2.80
2023-01-23T18:42:43.630Z,2.80
2023-01-23T18:45:16.530Z,2.90
2023-01-23T18:47:45.459Z,2.80
2023-01-23T18:50:17.951Z,2.80
2023-01-23T18:53:06.158Z,2.80
2023-01-23T18:55:52.780Z,2.80
2023-01-23T18:58:45.769Z,2.80
2023-01-23T19:01:22.416Z,2.80
2023-01-23T19:03:49.660Z,2.80
2023-01-23T19:06:23.079Z,2.80
2023-01-23T19:08:51.443Z,2.70
2023-01-23T19:11:26.594Z,2.70
2023-01-23T19:14:17.070Z,2.70
2023-01-23T19:16:58.407Z,2.60
2023-01-23T19:19:32.599Z,2.60
2023-01-23T19:21:59.641Z,2.60
2023-01-23T19:24:28.272Z,2.60
2023-01-23T19:26:55.347Z,2.70
2023-01-23T19:29:23.232Z,2.70
2023-01-23T19:32:07.118Z,2.70
2023-01-23T19:34:34.718Z,2.70
2023-01-23T19:37:01.921Z,2.70
2023-01-23T19:39:28.603Z,2.80
2023-01-23T19:41:55.367Z,2.70
2023-01-23T19:44:25.011Z,2.70
2023-01-23T19:46:52.637Z,2.70
2023-01-23T19:49:19.614Z,2.70
2023-01-23T19:51:47.115Z,2.80
2023-01-23T19:54:16.493Z,2.80
2023-01-23T19:56:43.281Z,2.80
2023-01-23T19:59:10.045Z,2.80
2023-01-23T20:01:45.304Z,2.80
2023-01-23T20:04:21.161Z,2.80
2023-01-23T20:06:54.614Z,2.80
2023-01-23T20:09:21.710Z,2.80
2023-01-23T20:11:48.727Z,2.80
2023-01-23T20:14:15.657Z,2.80
2023-01-23T20:16:43.325Z,2.70
2023-01-23T20:19:15.011Z,2.80
2023-01-23T20:21:41.973Z,2.80
2023-01-23T20:24:08.875Z,2.90
2023-01-23T20:26:36.118Z,2.90
2023-01-23T20:29:03.953Z,3.00
2023-01-23T20:31:31.166Z,3.10
2023-01-23T20:33:57.863Z,3.10
2023-01-23T20:36:24.522Z,3.10
2023-01-23T20:38:51.166Z,3.10
2023-01-23T20:41:19.273Z,3.20
2023-01-23T20:43:46.475Z,3.20
2023-01-23T20:46:15.355Z,3.30
2023-01-23T20:48:46.703Z,3.30
2023-01-23T20:51:15.450Z,3.30
2023-01-23T20:53:42.309Z,3.40
2023-01-23T20:56:11.503Z,3.40
2023-01-23T20:59:00.080Z,3.40
2023-01-23T21:01:29.313Z,3.40
2023-01-23T21:03:56.247Z,3.50
2023-01-23T21:06:23.108Z,3.40
2023-01-23T21:08:49.790Z,3.50
2023-01-23T21:11:19.320Z,3.60
2023-01-23T21:13:51.515Z,3.60
2023-01-23T21:16:18.864Z,3.60
2023-01-23T21:18:46.869Z,3.60
2023-01-23T21:21:15.901Z,3.60
2023-01-23T21:23:43.169Z,3.70
2023-01-23T21:26:09.901Z,3.70
2023-01-23T21:28:37.155Z,3.70
2023-01-23T21:31:16.260Z,3.70
2023-01-23T21:33:46.571Z,3.70
2023-01-23T21:36:15.067Z,3.70
2023-01-23T21:38:41.707Z,3.70
2023-01-23T21:41:08.406Z,3.70
2023-01-23T21:43:35.423Z,3.70
2023-01-23T21:46:02.701Z,3.70
2023-01-23T21:48:30.347Z,3.80
2023-01-23T21:51:06.987Z,3.80
2023-01-23T21:53:33.970Z,3.70
2023-01-23T21:56:00.567Z,3.80
2023-01-23T21:58:27.189Z,3.80
2023-01-23T22:01:41.616Z,3.80
2023-01-23T22:04:12.222Z,3.80
2023-01-23T22:06:40.874Z,3.80
2023-01-23T22:09:09.088Z,3.80
2023-01-23T22:11:36.127Z,3.80
2023-01-23T22:14:02.894Z,3.80
2023-01-23T22:16:46.815Z,3.80
2023-01-23T22:19:15.368Z,3.90
2023-01-23T22:21:43.583Z,3.90
2023-01-23T22:24:10.255Z,3.90
2023-01-23T22:26:37.261Z,4.00
2023-01-23T22:29:03.929Z,4.00
2023-01-23T22:31:30.684Z,4.00
2023-01-23T22:33:57.349Z,4.00
2023-01-23T22:36:23.982Z,4.00
2023-01-23T22:38:54.091Z,4.00
2023-01-23T22:41:21.045Z,4.00
2023-01-23T22:43:52.568Z,4.10
2023-01-23T22:46:19.318Z,4.00
2023-01-23T22:48:45.992Z,4.00
2023-01-23T22:51:19.633Z,4.10
2023-01-23T22:53:46.254Z,4.00
2023-01-23T22:56:13.641Z,4.00
2023-01-23T22:58:44.159Z,4.00
2023-01-23T23:01:12.257Z,4.00
2023-01-23T23:03:39.045Z,4.00
2023-01-23T23:06:08.514Z,4.10
2023-01-23T23:08:35.954Z,4.00
2023-01-23T23:11:03.507Z,4.00
2023-01-23T23:13:32.247Z,4.10
2023-01-23T23:16:04.091Z,4.10
2023-01-23T23:18:30.804Z,4.00
2023-01-23T23:21:11.083Z,4.00
2023-01-23T23:23:38.504Z,4.10
2023-01-23T23:26:07.206Z,4.00
2023-01-23T23:28:34.289Z,4.00
2023-01-23T23:31:01.211Z,4.00
2023-01-23T23:33:28.235Z,4.00
2023-01-23T23:35:55.089Z,4.10
2023-01-23T23:38:21.895Z,4.20
2023-01-23T23:41:15.941Z,4.10
2023-01-23T23:43:43.588Z,4.10
2023-01-23T23:46:11.871Z,4.10
2023-01-23T23:48:39.321Z,4.20
2023-01-23T23:51:09.013Z,4.20
2023-01-23T23:53:36.228Z,4.20
2023-01-23T23:56:03.609Z,4.20
2023-01-23T23:58:30.315Z,4.20
